Time;durP1;ratioP1;P1;durP2;ratioP2;P2;SDS_P1;SDS_P2;PMS_P1;PMS_P2;Temp;Humidity;BMP_temperature;BMP_pressure;BME280_temperature;BME280_humidity;BME280_pressure;Samples;Min_cycle;Max_cycle;Signal;HPM_P1;HPM_P2
2022/03/10 00:01:43;;;;;;;1.13;0.93;;;3.30;99.90;;;;;;5025261;28;20216;-84
2022/03/10 00:04:09;;;;;;;2.03;1.93;;;3.30;99.90;;;;;;5023196;28;20200;-84
2022/03/10 00:06:34;;;;;;;1.53;1.37;;;3.20;99.90;;;;;;5017078;28;20232;-84
2022/03/10 00:09:00;;;;;;;2.67;1.83;;;3.10;99.90;;;;;;5025449;28;20257;-84
2022/03/10 00:11:26;;;;;;;6.77;1.37;;;3.10;99.90;;;;;;5021004;28;20206;-84
2022/03/10 00:13:51;;;;;;;2.00;1.03;;;3.00;99.90;;;;;;5024937;28;20178;-84
2022/03/10 00:16:17;;;;;;;0.67;0.63;;;2.90;99.90;;;;;;5025234;28;20197;-84
2022/03/10 00:18:42;;;;;;;0.87;0.87;;;2.90;99.90;;;;;;5023760;28;20196;-84
2022/03/10 00:21:08;;;;;;;1.63;1.53;;;2.90;99.90;;;;;;5022522;28;20210;-85
2022/03/10 00:23:33;;;;;;;0.23;0.23;;;2.90;99.90;;;;;;5024591;28;20608;-84
2022/03/10 00:25:59;;;;;;;1.40;0.93;;;2.90;99.90;;;;;;5021944;28;20205;-85
2022/03/10 00:28:24;;;;;;;1.43;0.90;;;2.90;99.90;;;;;;5025432;28;20187;-85
2022/03/10 00:30:50;;;;;;;1.23;1.13;;;2.80;99.90;;;;;;5023360;28;20194;-85
2022/03/10 00:33:15;;;;;;;0.47;0.47;;;2.80;99.90;;;;;;5018300;28;20316;-84
2022/03/10 00:35:41;;;;;;;0.63;0.63;;;2.80;99.90;;;;;;5023475;28;20192;-85
2022/03/10 00:38:07;;;;;;;0.40;0.40;;;2.80;99.90;;;;;;5023994;28;20190;-85
2022/03/10 00:40:32;;;;;;;0.70;0.70;;;2.80;99.90;;;;;;5023195;28;20214;-85
2022/03/10 00:42:58;;;;;;;3.80;1.20;;;2.60;99.90;;;;;;5020768;28;20185;-85
2022/03/10 00:45:25;;;;;;;0.20;0.20;;;2.60;99.90;;;;;;5018780;28;20210;-85
2022/03/10 00:47:51;;;;;;;0.50;0.50;;;2.60;99.90;;;;;;5019932;28;20185;-85
2022/03/10 00:50:17;;;;;;;0.87;0.63;;;2.60;99.90;;;;;;5025235;28;20232;-85
2022/03/10 00:52:44;;;;;;;0.80;0.80;;;2.60;99.90;;;;;;5022187;28;20179;-85
2022/03/10 00:55:11;;;;;;;0.83;0.50;;;2.70;99.90;;;;;;5023033;28;20213;-85
2022/03/10 00:57:37;;;;;;;1.07;0.93;;;2.70;99.90;;;;;;5024398;28;20269;-85
2022/03/10 01:00:05;;;;;;;0.83;0.83;;;2.70;99.90;;;;;;5022657;28;20207;-85
2022/03/10 01:02:32;;;;;;;0.93;0.93;;;2.70;99.90;;;;;;5018026;28;20260;-84
2022/03/10 01:04:58;;;;;;;0.97;0.70;;;2.70;99.90;;;;;;5019313;28;20662;-85
2022/03/10 01:07:23;;;;;;;1.07;1.07;;;2.80;99.90;;;;;;5020155;28;20262;-84
2022/03/10 01:09:49;;;;;;;0.50;0.50;;;2.70;99.90;;;;;;5023645;28;20188;-85
2022/03/10 01:12:15;;;;;;;0.50;0.40;;;2.60;99.90;;;;;;5022142;28;20205;-85
2022/03/10 01:14:40;;;;;;;5.67;0.90;;;2.40;99.90;;;;;;5024965;28;20187;-85
2022/03/10 01:17:06;;;;;;;0.20;0.20;;;2.30;99.90;;;;;;5017585;28;20245;-85
2022/03/10 01:19:31;;;;;;;0.30;0.30;;;2.20;99.90;;;;;;5021675;28;20300;-85
2022/03/10 01:21:57;;;;;;;1.07;0.97;;;2.00;99.90;;;;;;5024661;28;20256;-85
2022/03/10 01:24:23;;;;;;;0.57;0.50;;;2.00;99.90;;;;;;5022169;28;20216;-85
2022/03/10 01:26:50;;;;;;;0.30;0.30;;;2.10;99.90;;;;;;5020257;28;20190;-85
2022/03/10 01:29:16;;;;;;;0.40;0.40;;;2.20;99.90;;;;;;5023003;28;20308;-85
2022/03/10 01:31:41;;;;;;;0.27;0.20;;;2.20;99.90;;;;;;5020198;28;20231;-85
2022/03/10 01:34:07;;;;;;;0.20;0.20;;;2.30;99.90;;;;;;5018968;28;20595;-85
2022/03/10 01:36:33;;;;;;;1.70;0.57;;;2.30;99.90;;;;;;5021879;28;20692;-84
2022/03/10 01:39:03;;;;;;;0.50;0.50;;;2.30;99.90;;;;;;5021731;28;20272;-84
2022/03/10 01:41:28;;;;;;;0.87;0.70;;;2.30;99.90;;;;;;5038997;28;21663;-85
2022/03/10 01:44:12;;;;;;;0.57;0.57;;;2.40;99.90;;;;;;5024567;28;20189;-85
2022/03/10 01:46:38;;;;;;;1.23;0.60;;;2.50;99.90;;;;;;5026611;28;20182;-85
2022/03/10 01:49:05;;;;;;;1.07;0.97;;;2.60;99.90;;;;;;5026594;28;20185;-84
2022/03/10 01:51:32;;;;;;;0.93;0.90;;;2.50;99.90;;;;;;5027011;28;20221;-84
2022/03/10 01:53:58;;;;;;;0.30;0.30;;;2.50;99.90;;;;;;5023509;28;20174;-85
2022/03/10 01:56:24;;;;;;;0.20;0.20;;;2.50;99.90;;;;;;5022497;28;20196;-85
2022/03/10 01:58:52;;;;;;;0.37;0.37;;;2.50;99.90;;;;;;5020789;28;20193;-84
2022/03/10 02:01:19;;;;;;;0.63;0.63;;;2.50;99.90;;;;;;5020435;28;20264;-85
2022/03/10 02:03:45;;;;;;;2.43;2.03;;;2.40;99.90;;;;;;5026584;28;20194;-85
2022/03/10 02:06:11;;;;;;;0.40;0.40;;;2.40;99.90;;;;;;5025805;28;20223;-85
2022/03/10 02:11:22;;;;;;;0.53;0.40;;;2.40;99.90;;;;;;5027956;28;20244;-85
2022/03/10 02:13:48;;;;;;;1.30;1.20;;;2.30;99.90;;;;;;5027048;28;20190;-87
2022/03/10 02:18:59;;;;;;;1.60;1.60;;;2.20;99.90;;;;;;5028033;28;20236;-84
2022/03/10 02:21:26;;;;;;;0.80;0.80;;;2.20;99.90;;;;;;5027265;28;20204;-84
2022/03/10 02:23:52;;;;;;;0.57;0.57;;;2.00;99.90;;;;;;5025393;28;20191;-85
2022/03/10 02:26:17;;;;;;;1.50;1.07;;;1.70;99.90;;;;;;5024931;28;20209;-84
2022/03/10 02:28:43;;;;;;;0.20;0.20;;;1.80;99.90;;;;;;5025168;28;20183;-85
2022/03/10 02:31:09;;;;;;;2.37;0.67;;;1.80;99.90;;;;;;5022667;28;20283;-85
2022/03/10 02:33:35;;;;;;;0.93;0.83;;;1.90;99.90;;;;;;5026076;28;21179;-85
2022/03/10 02:36:01;;;;;;;0.63;0.63;;;1.90;99.90;;;;;;5025799;28;20196;-84
2022/03/10 02:38:27;;;;;;;2.63;1.37;;;1.90;99.90;;;;;;5024722;28;20205;-84
2022/03/10 02:40:52;;;;;;;0.60;0.60;;;1.90;99.90;;;;;;5024756;28;20748;-84
2022/03/10 02:43:19;;;;;;;0.40;0.40;;;1.90;99.90;;;;;;5018679;28;20184;-85
2022/03/10 02:45:46;;;;;;;0.60;0.60;;;1.80;99.90;;;;;;5026436;28;20194;-83
2022/03/10 02:48:12;;;;;;;0.43;0.43;;;1.90;99.90;;;;;;5025652;28;20196;-84
2022/03/10 02:50:38;;;;;;;0.17;0.17;;;1.90;99.90;;;;;;5019049;28;20251;-85
2022/03/10 02:53:05;;;;;;;0.93;0.50;;;2.00;99.90;;;;;;5022241;28;20618;-85
2022/03/10 02:55:31;;;;;;;0.73;0.60;;;2.10;99.90;;;;;;5021148;28;20254;-84
2022/03/10 02:57:56;;;;;;;0.60;0.60;;;2.10;99.90;;;;;;5025166;28;20189;-85
2022/03/10 03:00:22;;;;;;;0.30;0.30;;;2.20;99.90;;;;;;5023324;28;20217;-84
2022/03/10 03:02:48;;;;;;;0.20;0.20;;;2.10;99.90;;;;;;5024615;28;20223;-85
2022/03/10 03:05:14;;;;;;;0.40;0.40;;;2.10;99.90;;;;;;5025336;28;20297;-84
2022/03/10 03:07:40;;;;;;;0.43;0.43;;;2.10;99.90;;;;;;5023965;28;20186;-84
2022/03/10 03:10:07;;;;;;;0.50;0.30;;;2.10;99.90;;;;;;5026431;28;20221;-85
2022/03/10 03:12:33;;;;;;;1.10;0.63;;;2.10;99.90;;;;;;5020673;28;20194;-85
2022/03/10 03:14:59;;;;;;;0.70;0.70;;;2.10;99.90;;;;;;5027536;28;20190;-85
2022/03/10 03:17:25;;;;;;;0.63;0.63;;;2.00;99.90;;;;;;5022620;28;20196;-85
2022/03/10 03:19:52;;;;;;;0.73;0.37;;;2.00;99.90;;;;;;5021468;28;20186;-85
2022/03/10 03:22:17;;;;;;;1.17;1.10;;;1.90;99.90;;;;;;5020217;28;20197;-85
2022/03/10 03:24:45;;;;;;;0.23;0.23;;;1.90;99.90;;;;;;5026070;28;20211;-85
2022/03/10 03:27:11;;;;;;;0.93;0.30;;;1.90;99.90;;;;;;5025225;28;20195;-84
2022/03/10 03:29:36;;;;;;;0.63;0.53;;;1.90;99.90;;;;;;5027131;28;20181;-85
2022/03/10 03:32:03;;;;;;;0.57;0.50;;;1.90;99.90;;;;;;5024786;28;20189;-85
2022/03/10 03:34:28;;;;;;;0.60;0.60;;;2.00;99.90;;;;;;5023891;28;20194;-85
2022/03/10 03:36:54;;;;;;;1.23;0.97;;;2.00;99.90;;;;;;5023003;28;20193;-84
2022/03/10 03:39:19;;;;;;;2.20;1.70;;;1.90;99.90;;;;;;5022051;28;20186;-85
2022/03/10 03:41:45;;;;;;;1.70;1.10;;;1.90;99.90;;;;;;5022960;28;20215;-84
2022/03/10 03:44:12;;;;;;;3.50;1.27;;;1.80;99.90;;;;;;5022919;28;20310;-85
2022/03/10 03:46:39;;;;;;;1.13;0.47;;;1.80;99.90;;;;;;5023831;28;20186;-84
2022/03/10 03:49:04;;;;;;;1.10;0.77;;;1.80;99.90;;;;;;5024901;28;20193;-85
2022/03/10 03:51:31;;;;;;;1.17;0.97;;;1.70;99.90;;;;;;5021063;28;20210;-85
2022/03/10 03:53:57;;;;;;;0.30;0.30;;;1.70;99.90;;;;;;5026052;28;20181;-85
2022/03/10 03:56:22;;;;;;;1.23;0.53;;;1.70;99.90;;;;;;5023972;28;20188;-84
2022/03/10 03:58:48;;;;;;;2.00;0.70;;;1.70;99.90;;;;;;5019845;28;20188;-85
2022/03/10 04:01:14;;;;;;;0.70;0.70;;;1.60;99.90;;;;;;5018682;28;20681;-83
2022/03/10 04:03:39;;;;;;;0.60;0.60;;;1.60;99.90;;;;;;5025760;28;20235;-85
2022/03/10 04:06:05;;;;;;;1.47;0.70;;;1.60;99.90;;;;;;5019386;28;20555;-84
2022/03/10 04:08:31;;;;;;;2.13;0.70;;;1.60;99.90;;;;;;5023282;28;20659;-85
2022/03/10 04:10:56;;;;;;;0.50;0.40;;;1.40;99.90;;;;;;5017974;28;20626;-84
2022/03/10 04:13:22;;;;;;;0.40;0.40;;;1.30;99.90;;;;;;5026294;28;20221;-85
2022/03/10 04:15:49;;;;;;;0.57;0.30;;;1.30;99.90;;;;;;5020168;28;20280;-84
2022/03/10 04:18:16;;;;;;;0.30;0.30;;;1.30;99.90;;;;;;5023917;28;20186;-85
2022/03/10 04:20:43;;;;;;;0.23;0.23;;;1.30;99.90;;;;;;5023695;28;20208;-84
2022/03/10 04:23:10;;;;;;;0.80;0.77;;;1.30;99.90;;;;;;5023455;28;20246;-85
2022/03/10 04:25:36;;;;;;;0.40;0.40;;;1.40;99.90;;;;;;5022811;28;20202;-85
2022/03/10 04:28:01;;;;;;;0.10;0.10;;;1.40;99.90;;;;;;5021863;28;20658;-85
2022/03/10 04:30:27;;;;;;;0.30;0.30;;;1.40;99.90;;;;;;5018777;28;20225;-84
2022/03/10 04:32:52;;;;;;;1.00;0.90;;;1.40;99.90;;;;;;5017452;28;20225;-85
2022/03/10 04:35:19;;;;;;;0.30;0.30;;;1.50;99.90;;;;;;5021404;28;20246;-85
2022/03/10 04:37:49;;;;;;;0.83;0.80;;;1.50;99.90;;;;;;5024490;28;20220;-85
2022/03/10 04:40:15;;;;;;;0.30;0.30;;;1.60;99.90;;;;;;5019640;28;20217;-85
2022/03/10 04:42:41;;;;;;;0.33;0.33;;;1.50;99.90;;;;;;5017286;28;20181;-85
2022/03/10 04:45:07;;;;;;;0.43;0.43;;;1.60;99.90;;;;;;5021652;28;20221;-84
2022/03/10 04:47:34;;;;;;;0.27;0.27;;;1.70;99.90;;;;;;5019327;28;20184;-84
2022/03/10 04:50:00;;;;;;;0.63;0.40;;;1.70;99.90;;;;;;5022762;28;20203;-83
2022/03/10 04:52:26;;;;;;;6.70;0.53;;;1.60;99.90;;;;;;5024483;28;20183;-84
2022/03/10 04:54:52;;;;;;;0.50;0.50;;;1.60;99.90;;;;;;5040161;28;20271;-85
2022/03/10 04:57:18;;;;;;;0.33;0.33;;;1.60;99.90;;;;;;5021725;28;20273;-85
2022/03/10 04:59:43;;;;;;;0.27;0.27;;;1.50;99.90;;;;;;5022041;28;20244;-84
2022/03/10 05:02:09;;;;;;;0.20;0.13;;;1.50;99.90;;;;;;5020490;28;20184;-85
2022/03/10 05:04:34;;;;;;;1.03;0.83;;;1.50;99.90;;;;;;5020344;28;20237;-86
2022/03/10 05:07:00;;;;;;;1.50;0.50;;;1.50;99.90;;;;;;5019040;28;20189;-84
2022/03/10 05:09:26;;;;;;;1.07;0.93;;;1.50;99.90;;;;;;5023824;28;20190;-84
2022/03/10 05:11:51;;;;;;;0.73;0.73;;;1.60;99.90;;;;;;5022520;28;20274;-85
2022/03/10 05:14:17;;;;;;;0.90;0.87;;;1.50;99.90;;;;;;5019872;28;20186;-85
2022/03/10 05:16:42;;;;;;;0.67;0.57;;;1.50;99.90;;;;;;5017330;28;20179;-84
2022/03/10 05:19:08;;;;;;;0.73;0.70;;;1.50;99.90;;;;;;5022560;28;20172;-84
2022/03/10 05:21:34;;;;;;;0.37;0.37;;;1.40;99.90;;;;;;5021294;28;20221;-85
2022/03/10 05:24:00;;;;;;;0.57;0.57;;;1.40;99.90;;;;;;5028335;28;20189;-85
2022/03/10 05:26:25;;;;;;;0.77;0.40;;;1.30;99.90;;;;;;5027694;28;20222;-85
2022/03/10 05:28:51;;;;;;;1.50;0.80;;;1.40;99.90;;;;;;5024785;28;20180;-85
2022/03/10 05:31:16;;;;;;;0.20;0.20;;;1.30;99.90;;;;;;5027916;28;20714;-84
2022/03/10 05:33:42;;;;;;;1.13;0.83;;;1.30;99.90;;;;;;5025773;28;20193;-84
2022/03/10 05:36:07;;;;;;;0.53;0.40;;;1.30;99.90;;;;;;5019941;28;20188;-85
2022/03/10 05:38:33;;;;;;;0.13;0.13;;;1.30;99.90;;;;;;5027154;28;20203;-84
2022/03/10 05:41:00;;;;;;;2.77;2.53;;;1.30;99.90;;;;;;5028416;28;20286;-84
2022/03/10 05:43:25;;;;;;;0.50;0.33;;;1.30;99.90;;;;;;5022010;28;20197;-84
2022/03/10 05:45:51;;;;;;;0.50;0.50;;;1.30;99.90;;;;;;5023747;28;20232;-84
2022/03/10 05:48:17;;;;;;;0.40;0.40;;;1.30;99.90;;;;;;5027989;28;20198;-85
2022/03/10 05:50:42;;;;;;;1.17;1.00;;;1.30;99.90;;;;;;5023673;28;20203;-84
2022/03/10 05:53:08;;;;;;;0.30;0.30;;;1.30;99.90;;;;;;5027161;28;20184;-84
2022/03/10 05:55:34;;;;;;;0.83;0.40;;;1.30;99.90;;;;;;5026171;28;20203;-84
2022/03/10 05:57:59;;;;;;;0.87;0.87;;;1.40;99.90;;;;;;5024511;28;20239;-84
2022/03/10 06:00:25;;;;;;;0.17;0.17;;;1.40;99.90;;;;;;5023857;28;20201;-84
2022/03/10 06:02:51;;;;;;;0.20;0.20;;;1.50;99.90;;;;;;5026532;28;20217;-84
2022/03/10 06:05:17;;;;;;;0.40;0.40;;;1.60;99.90;;;;;;5025572;28;20247;-84
2022/03/10 06:07:43;;;;;;;0.40;0.40;;;1.50;99.90;;;;;;5025815;28;20196;-84
2022/03/10 06:10:08;;;;;;;0.77;0.77;;;1.60;99.90;;;;;;5025622;28;20204;-84
2022/03/10 06:12:34;;;;;;;0.20;0.20;;;1.60;99.90;;;;;;5024466;28;20280;-84
2022/03/10 06:15:02;;;;;;;0.80;0.80;;;1.60;99.90;;;;;;5021484;28;20786;-81
2022/03/10 06:17:28;;;;;;;6.57;0.93;;;1.70;99.90;;;;;;5021799;28;20185;-82
2022/03/10 06:19:53;;;;;;;0.30;0.30;;;1.70;99.90;;;;;;5024771;28;20194;-82
2022/03/10 06:22:21;;;;;;;0.77;0.77;;;1.80;99.90;;;;;;5026915;28;20217;-81
2022/03/10 06:24:46;;;;;;;0.73;0.73;;;1.90;99.90;;;;;;5026675;28;20199;-82
2022/03/10 06:27:14;;;;;;;0.57;0.53;;;1.90;99.90;;;;;;5027186;28;20217;-82
2022/03/10 06:29:41;;;;;;;0.47;0.47;;;2.00;99.90;;;;;;5018864;28;20191;-82
2022/03/10 06:32:07;;;;;;;0.70;0.50;;;2.00;99.90;;;;;;5026785;28;20215;-82
2022/03/10 06:34:34;;;;;;;1.33;0.73;;;2.10;99.90;;;;;;5025044;28;20189;-82
2022/03/10 06:36:59;;;;;;;0.77;0.57;;;2.10;99.90;;;;;;5028518;28;20223;-82
2022/03/10 06:39:25;;;;;;;0.30;0.30;;;2.10;99.90;;;;;;5028515;28;20666;-81
2022/03/10 06:41:51;;;;;;;1.80;1.70;;;2.20;99.90;;;;;;5029590;28;21761;-81
2022/03/10 06:44:16;;;;;;;0.50;0.50;;;2.30;99.90;;;;;;5026924;28;20185;-81
2022/03/10 06:46:42;;;;;;;0.10;0.10;;;2.50;99.90;;;;;;5025879;28;20189;-82
2022/03/10 06:49:08;;;;;;;0.60;0.60;;;2.60;99.90;;;;;;5021510;28;20181;-82
2022/03/10 06:51:33;;;;;;;0.63;0.63;;;2.80;99.90;;;;;;5027612;28;21141;-82
2022/03/10 06:53:59;;;;;;;1.13;1.03;;;2.90;99.90;;;;;;5029152;28;20214;-81
2022/03/10 06:56:25;;;;;;;0.97;0.57;;;3.00;99.90;;;;;;5045704;28;20230;-82
2022/03/10 06:58:50;;;;;;;0.63;0.50;;;3.10;99.90;;;;;;5024340;28;20705;-81
2022/03/10 07:01:17;;;;;;;4.57;1.17;;;3.20;99.90;;;;;;5027489;28;20219;-81
2022/03/10 07:03:42;;;;;;;1.90;1.43;;;3.20;99.90;;;;;;5026882;28;20193;-82
2022/03/10 07:06:08;;;;;;;0.57;0.57;;;3.20;99.90;;;;;;5026746;28;20211;-82
2022/03/10 07:08:34;;;;;;;0.30;0.30;;;3.20;99.90;;;;;;5025087;28;20214;-82
2022/03/10 07:11:00;;;;;;;2.87;1.20;;;3.10;99.90;;;;;;5026461;28;20221;-82
2022/03/10 07:13:25;;;;;;;3.20;1.07;;;3.10;99.90;;;;;;5024491;28;20562;-81
2022/03/10 07:15:51;;;;;;;1.20;1.20;;;3.10;99.90;;;;;;5025830;28;20289;-81
2022/03/10 07:18:16;;;;;;;2.23;0.60;;;3.20;99.90;;;;;;5025662;28;20209;-82
2022/03/10 07:20:42;;;;;;;0.90;0.90;;;3.30;99.90;;;;;;5029087;28;20215;-82
2022/03/10 07:23:07;;;;;;;0.53;0.53;;;3.40;99.90;;;;;;5026173;28;20189;-82
2022/03/10 07:25:33;;;;;;;1.23;1.10;;;3.50;99.90;;;;;;5028676;28;20220;-82
2022/03/10 07:27:58;;;;;;;1.07;0.97;;;3.60;99.90;;;;;;5027380;28;20210;-81
2022/03/10 07:30:24;;;;;;;2.63;0.90;;;3.80;99.90;;;;;;5025577;28;20217;-82
2022/03/10 07:32:50;;;;;;;0.47;0.47;;;4.00;99.90;;;;;;5026490;28;20266;-82
2022/03/10 07:35:15;;;;;;;1.03;0.90;;;4.20;99.90;;;;;;5022310;28;20200;-82
2022/03/10 07:37:41;;;;;;;0.63;0.63;;;4.30;99.90;;;;;;5022348;28;20672;-82
2022/03/10 07:40:07;;;;;;;1.40;1.00;;;4.60;99.90;;;;;;5026023;28;20573;-81
2022/03/10 07:42:33;;;;;;;0.50;0.50;;;4.70;99.90;;;;;;5022978;28;20194;-82
2022/03/10 07:44:58;;;;;;;0.73;0.57;;;4.90;99.90;;;;;;5023708;28;20207;-81
2022/03/10 07:47:24;;;;;;;1.80;1.50;;;5.00;99.90;;;;;;5028373;28;20209;-82
2022/03/10 07:49:49;;;;;;;1.20;1.07;;;5.10;99.90;;;;;;5022865;28;20608;-82
2022/03/10 07:52:15;;;;;;;0.70;0.70;;;5.20;99.90;;;;;;5024071;28;20663;-82
2022/03/10 07:54:41;;;;;;;1.30;1.27;;;5.40;99.90;;;;;;5026899;28;20179;-82
2022/03/10 07:57:06;;;;;;;0.53;0.53;;;5.60;99.90;;;;;;5024255;28;20194;-82
2022/03/10 07:59:32;;;;;;;0.40;0.40;;;5.80;99.90;;;;;;5025495;28;20189;-82
2022/03/10 08:01:57;;;;;;;0.37;0.37;;;6.10;99.90;;;;;;5025925;28;21147;-82
2022/03/10 08:04:23;;;;;;;0.70;0.70;;;6.20;99.90;;;;;;5019644;28;20190;-82
2022/03/10 08:06:48;;;;;;;2.93;0.57;;;6.30;99.90;;;;;;5018964;28;20214;-82
2022/03/10 08:09:14;;;;;;;1.40;0.77;;;6.40;99.90;;;;;;5023242;28;20186;-82
2022/03/10 08:11:40;;;;;;;1.27;0.87;;;6.60;99.90;;;;;;5024715;28;20194;-82
2022/03/10 08:14:06;;;;;;;0.90;0.90;;;6.80;99.90;;;;;;5023384;28;20185;-82
2022/03/10 08:16:33;;;;;;;2.53;1.60;;;7.10;99.90;;;;;;5026828;28;20191;-82
2022/03/10 08:18:59;;;;;;;1.17;1.10;;;7.30;99.90;;;;;;5022825;28;20195;-83
2022/03/10 08:21:26;;;;;;;0.57;0.50;;;7.40;99.90;;;;;;5021029;28;20626;-82
2022/03/10 08:23:52;;;;;;;1.17;0.97;;;7.60;99.90;;;;;;5026513;28;20669;-83
2022/03/10 08:26:18;;;;;;;1.23;1.00;;;7.80;99.90;;;;;;5027942;28;20213;-83
2022/03/10 08:28:45;;;;;;;1.47;0.93;;;8.10;99.90;;;;;;5024710;28;20178;-83
2022/03/10 08:31:11;;;;;;;0.57;0.57;;;8.30;99.90;;;;;;5025044;28;20355;-83
2022/03/10 08:33:37;;;;;;;1.00;0.63;;;8.50;99.90;;;;;;5026500;28;20673;-83
2022/03/10 08:36:05;;;;;;;0.87;0.80;;;8.60;99.90;;;;;;5021598;28;20661;-83
2022/03/10 08:38:31;;;;;;;0.53;0.53;;;8.80;99.90;;;;;;5021488;28;20187;-83
2022/03/10 08:40:59;;;;;;;1.07;0.57;;;9.00;99.90;;;;;;5020508;28;20347;-83
2022/03/10 08:43:28;;;;;;;0.70;0.70;;;9.20;99.90;;;;;;5018551;28;20211;-83
2022/03/10 08:45:55;;;;;;;0.87;0.87;;;9.50;99.90;;;;;;5022267;28;20213;-82
2022/03/10 08:48:20;;;;;;;1.50;1.37;;;9.60;99.90;;;;;;5017599;28;21123;-82
2022/03/10 08:50:46;;;;;;;0.83;0.73;;;9.90;99.90;;;;;;5023887;28;20213;-83
2022/03/10 08:53:12;;;;;;;0.90;0.90;;;10.00;99.90;;;;;;5022230;28;20190;-83
2022/03/10 08:55:37;;;;;;;0.63;0.63;;;10.10;99.90;;;;;;5018812;28;20190;-84
2022/03/10 08:58:03;;;;;;;4.13;1.10;;;10.20;99.90;;;;;;5021197;28;20186;-82
2022/03/10 09:00:29;;;;;;;0.30;0.30;;;10.30;99.90;;;;;;5020538;28;20252;-83
2022/03/10 09:02:55;;;;;;;1.57;1.10;;;10.40;99.90;;;;;;5022476;28;20217;-83
2022/03/10 09:05:20;;;;;;;1.57;0.87;;;10.40;99.90;;;;;;4987610;28;1042143;-83
2022/03/10 09:07:46;;;;;;;2.80;1.50;;;10.20;99.90;;;;;;5025123;28;20202;-83
2022/03/10 09:10:11;;;;;;;1.53;1.13;;;10.10;99.90;;;;;;5023356;28;20824;-83
2022/03/10 09:12:39;;;;;;;1.83;1.03;;;10.40;99.90;;;;;;5023260;28;20194;-83
2022/03/10 09:15:06;;;;;;;2.00;1.83;;;10.60;99.90;;;;;;5025921;28;20179;-82
2022/03/10 09:17:31;;;;;;;0.90;0.70;;;10.60;99.90;;;;;;5022625;28;20184;-84
2022/03/10 09:19:57;;;;;;;1.93;1.47;;;10.80;99.90;;;;;;5024878;28;20602;-83
2022/03/10 09:22:25;;;;;;;3.83;1.57;;;10.60;99.90;;;;;;5027370;28;20186;-83
2022/03/10 09:24:51;;;;;;;2.13;1.93;;;11.00;99.90;;;;;;5024734;28;20218;-83
2022/03/10 09:27:17;;;;;;;0.67;0.67;;;10.90;99.90;;;;;;5022396;28;20285;-83
2022/03/10 09:29:43;;;;;;;2.00;1.43;;;10.90;99.90;;;;;;5041137;28;20219;-83
2022/03/10 09:32:08;;;;;;;1.37;1.07;;;10.70;99.90;;;;;;5020438;28;20240;-83
2022/03/10 09:34:34;;;;;;;0.93;0.93;;;11.10;99.90;;;;;;5020815;28;20182;-82
2022/03/10 09:36:59;;;;;;;1.83;1.17;;;10.90;99.90;;;;;;5018876;28;20565;-83
2022/03/10 09:39:25;;;;;;;0.60;0.60;;;11.30;99.90;;;;;;5018076;28;20183;-83
2022/03/10 09:41:51;;;;;;;1.53;1.00;;;11.50;99.90;;;;;;5023364;28;20293;-83
2022/03/10 09:44:20;;;;;;;3.33;1.00;;;11.80;99.90;;;;;;5019780;28;20190;-83
2022/03/10 09:46:49;;;;;;;1.63;1.53;;;12.00;99.90;;;;;;5017130;28;20212;-83
2022/03/10 09:49:15;;;;;;;1.20;0.80;;;12.20;99.90;;;;;;5022684;28;20259;-82
2022/03/10 09:51:42;;;;;;;1.73;1.03;;;12.40;99.90;;;;;;5022195;28;20198;-84
2022/03/10 09:54:07;;;;;;;0.97;0.87;;;12.50;99.90;;;;;;5017770;28;20527;-82
2022/03/10 09:56:36;;;;;;;1.40;1.13;;;12.70;99.90;;;;;;5024569;28;20193;-83
2022/03/10 09:59:05;;;;;;;1.10;1.00;;;12.70;99.90;;;;;;5030712;28;20541;-83
2022/03/10 10:01:31;;;;;;;2.07;1.73;;;12.80;99.90;;;;;;5029823;28;21049;-82
2022/03/10 10:03:56;;;;;;;1.43;1.33;;;12.90;99.90;;;;;;5021835;28;20265;-83
2022/03/10 10:06:22;;;;;;;1.57;0.77;;;12.90;99.90;;;;;;5028173;28;20214;-82
2022/03/10 10:08:57;;;;;;;1.07;0.97;;;13.10;99.90;;;;;;5031406;28;20626;-83
2022/03/10 10:11:33;;;;;;;1.50;1.00;;;12.70;99.90;;;;;;5032600;28;20202;-83
2022/03/10 10:13:59;;;;;;;1.33;1.23;;;12.80;99.90;;;;;;5030391;28;20182;-83
2022/03/10 10:16:25;;;;;;;1.93;1.83;;;12.90;99.90;;;;;;5029287;28;20194;-83
2022/03/10 10:18:58;;;;;;;1.17;1.03;;;13.00;99.90;;;;;;5032878;28;20282;-83
2022/03/10 10:21:24;;;;;;;2.83;1.63;;;13.10;99.90;;;;;;5034159;28;20205;-83
2022/03/10 10:23:52;;;;;;;2.13;1.83;;;13.30;99.90;;;;;;5051502;28;20186;-83
2022/03/10 10:26:20;;;;;;;2.77;1.60;;;13.30;99.90;;;;;;5033676;28;20214;-83
2022/03/10 10:28:48;;;;;;;2.37;1.10;;;12.80;99.90;;;;;;5031123;28;20181;-83
2022/03/10 10:31:22;;;;;;;3.53;1.57;;;13.00;99.90;;;;;;5032479;28;20658;-83
2022/03/10 10:34:02;;;;;;;2.27;2.03;;;13.10;99.90;;;;;;5034152;28;20181;-83
2022/03/10 10:36:32;;;;;;;1.03;0.93;;;12.40;99.90;;;;;;5030890;28;20182;-82
2022/03/10 10:39:17;;;;;;;1.50;1.40;;;12.70;99.90;;;;;;5032057;28;20228;-82
2022/03/10 10:41:45;;;;;;;6.13;1.00;;;12.80;99.90;;;;;;5030299;28;20235;-82
2022/03/10 10:44:16;;;;;;;2.03;0.90;;;13.10;99.90;;;;;;5027734;28;20202;-83
2022/03/10 10:46:44;;;;;;;1.33;1.27;;;13.30;99.90;;;;;;5033609;28;20208;-83
2022/03/10 10:49:17;;;;;;;0.87;0.87;;;13.50;99.90;;;;;;5030982;28;20202;-83
2022/03/10 10:51:48;;;;;;;1.07;1.00;;;13.30;99.90;;;;;;5029082;28;20210;-82
2022/03/10 10:54:20;;;;;;;1.00;0.83;;;13.10;99.90;;;;;;5026208;28;20297;-82
2022/03/10 10:56:56;;;;;;;1.27;1.13;;;13.30;99.90;;;;;;5029691;28;20948;-82
2022/03/10 10:59:36;;;;;;;1.30;1.10;;;13.40;99.90;;;;;;5030738;28;20202;-82
2022/03/10 11:02:12;;;;;;;1.17;1.17;;;13.70;99.90;;;;;;5029723;28;20220;-82
2022/03/10 11:04:43;;;;;;;1.73;1.63;;;13.50;99.90;;;;;;5029100;28;20182;-82
2022/03/10 11:07:09;;;;;;;1.77;1.67;;;12.70;99.90;;;;;;5030531;28;20244;-83
2022/03/10 11:09:36;;;;;;;1.90;1.50;;;12.80;99.90;;;;;;5021603;28;20658;-83
2022/03/10 11:12:02;;;;;;;0.77;0.77;;;13.10;99.90;;;;;;5020276;28;20215;-83
2022/03/10 11:14:28;;;;;;;1.97;1.63;;;13.30;99.90;;;;;;5024830;28;20181;-84
2022/03/10 11:16:55;;;;;;;3.30;1.53;;;13.40;99.90;;;;;;5025269;28;20177;-84
2022/03/10 11:19:25;;;;;;;1.17;0.77;;;13.50;99.90;;;;;;5025522;28;20396;-84
2022/03/10 11:22:28;;;;;;;1.83;1.33;;;13.80;99.90;;;;;;5027558;28;20946;-84
2022/03/10 11:25:03;;;;;;;2.03;1.10;;;13.60;99.90;;;;;;5026019;28;20204;-84
2022/03/10 11:27:32;;;;;;;2.83;0.87;;;13.50;99.90;;;;;;5025949;28;20273;-83
2022/03/10 11:30:01;;;;;;;0.60;0.60;;;13.50;99.90;;;;;;5023441;28;20181;-84
2022/03/10 11:32:29;;;;;;;1.50;1.07;;;13.80;99.90;;;;;;5017874;28;20191;-83
2022/03/10 11:34:58;;;;;;;1.67;1.57;;;14.10;99.90;;;;;;5021994;28;20365;-84
2022/03/10 11:37:42;;;;;;;3.53;1.67;;;13.70;99.90;;;;;;5025314;28;20189;-84
2022/03/10 11:40:09;;;;;;;1.63;1.40;;;13.70;99.90;;;;;;5021212;28;20216;-84
2022/03/10 11:42:36;;;;;;;1.50;1.10;;;13.90;99.90;;;;;;5020767;28;20855;-83
2022/03/10 11:45:12;;;;;;;2.40;2.20;;;13.70;99.90;;;;;;5024782;28;20243;-84
2022/03/10 11:47:39;;;;;;;2.07;1.97;;;13.60;99.90;;;;;;5024358;28;20181;-84
2022/03/10 11:50:23;;;;;;;3.93;1.80;;;13.60;99.90;;;;;;5021400;28;20312;-84
2022/03/10 11:53:03;;;;;;;2.77;1.43;;;13.50;99.90;;;;;;5019601;28;20181;-83
2022/03/10 11:55:39;;;;;;;1.03;0.57;;;13.70;99.90;;;;;;5024369;28;20200;-84
2022/03/10 11:58:05;;;;;;;2.30;1.00;;;13.90;99.90;;;;;;5019157;28;20944;-84
2022/03/10 12:00:49;;;;;;;1.20;1.10;;;14.30;99.90;;;;;;5025814;28;20312;-83
2022/03/10 12:03:34;;;;;;;1.20;1.00;;;14.50;99.90;;;;;;5024005;28;20204;-84
2022/03/10 12:06:02;;;;;;;1.80;1.10;;;15.00;99.90;;;;;;5023617;28;20300;-84
2022/03/10 12:08:30;;;;;;;2.60;1.73;;;15.10;99.90;;;;;;5025435;28;20185;-83
2022/03/10 12:10:57;;;;;;;0.57;0.57;;;14.80;99.90;;;;;;5022850;28;20300;-84
2022/03/10 12:13:32;;;;;;;1.77;0.90;;;15.10;99.90;;;;;;5024910;28;20256;-84
2022/03/10 12:15:59;;;;;;;0.93;0.63;;;15.40;99.90;;;;;;5026019;28;20268;-84
2022/03/10 12:18:45;;;;;;;0.77;0.70;;;15.60;99.90;;;;;;5024581;28;20243;-85
2022/03/10 12:21:31;;;;;;;2.27;1.63;;;15.30;99.90;;;;;;5022902;28;20222;-84
2022/03/10 12:24:04;;;;;;;1.73;1.60;;;15.50;99.90;;;;;;5022355;28;20664;-84
2022/03/10 12:26:34;;;;;;;4.70;2.57;;;15.30;99.90;;;;;;5022544;28;20230;-83
2022/03/10 12:29:03;;;;;;;1.67;1.57;;;15.10;99.90;;;;;;5023337;28;20589;-84
2022/03/10 12:31:32;;;;;;;3.93;2.30;;;15.10;99.90;;;;;;5029755;28;20202;-84
2022/03/10 12:34:23;;;;;;;1.00;0.90;;;14.80;99.90;;;;;;5021354;28;20192;-83
2022/03/10 12:36:51;;;;;;;0.70;0.70;;;15.20;99.90;;;;;;5023246;28;20183;-83
2022/03/10 12:39:18;;;;;;;1.57;1.27;;;14.80;99.90;;;;;;5019295;28;20189;-84
2022/03/10 12:41:48;;;;;;;1.03;0.60;;;14.90;99.90;;;;;;5020194;28;20205;-82
2022/03/10 12:44:17;;;;;;;1.40;1.27;;;15.10;99.90;;;;;;5025764;28;20720;-82
2022/03/10 12:46:44;;;;;;;0.80;0.80;;;15.30;99.90;;;;;;5025696;28;20206;-82
2022/03/10 12:49:30;;;;;;;1.10;1.00;;;15.70;99.90;;;;;;5027105;28;20187;-82
2022/03/10 12:51:57;;;;;;;1.17;0.80;;;15.60;99.90;;;;;;5024584;28;20212;-82
2022/03/10 12:54:25;;;;;;;1.40;1.07;;;15.50;99.90;;;;;;5025533;28;20179;-82
2022/03/10 12:56:57;;;;;;;1.40;1.23;;;15.50;99.90;;;;;;5023787;28;20325;-82
2022/03/10 12:59:32;;;;;;;1.53;0.57;;;15.60;99.90;;;;;;5024921;28;20178;-82